Time;durP1;ratioP1;P1;durP2;ratioP2;P2;SDS_P1;SDS_P2;PMS_P1;PMS_P2;Temp;Humidity;BMP_temperature;BMP_pressure;BME280_temperature;BME280_humidity;BME280_pressure;Samples;Min_cycle;Max_cycle;Signal;HPM_P1;HPM_P2
2023/09/16 00:00:48;;;;;;;18.13;16.13;;;16.50;99.90;;;;;;5032055;28;20260;-69
2023/09/16 00:03:14;;;;;;;18.83;17.03;;;16.50;99.90;;;;;;5031757;28;20193;-69
2023/09/16 00:05:39;;;;;;;17.43;15.80;;;16.50;99.90;;;;;;5030740;28;20204;-69
2023/09/16 00:08:06;;;;;;;16.80;15.30;;;16.50;99.90;;;;;;5032147;28;20615;-68
2023/09/16 00:10:32;;;;;;;17.00;15.40;;;16.50;99.90;;;;;;5029043;28;20276;-68
2023/09/16 00:13:00;;;;;;;17.27;15.67;;;16.50;99.90;;;;;;5031564;28;20867;-69
2023/09/16 00:15:25;;;;;;;17.27;15.77;;;16.40;99.90;;;;;;5032091;28;20465;-68
2023/09/16 00:17:51;;;;;;;16.80;15.30;;;16.40;99.90;;;;;;5031810;28;20996;-69
2023/09/16 00:20:16;;;;;;;17.60;15.90;;;16.40;99.90;;;;;;5031700;28;20297;-69
2023/09/16 00:22:43;;;;;;;17.27;15.67;;;16.30;99.90;;;;;;5031431;28;20256;-68
2023/09/16 00:25:09;;;;;;;17.60;16.00;;;16.30;99.90;;;;;;5029692;28;20182;-68
2023/09/16 00:27:35;;;;;;;17.63;16.03;;;16.30;99.90;;;;;;5031717;28;20433;-69
2023/09/16 00:30:05;;;;;;;15.60;14.00;;;16.20;99.90;;;;;;5033966;28;20506;-69
2023/09/16 00:32:31;;;;;;;18.17;16.37;;;16.20;99.90;;;;;;5035689;28;20457;-69
2023/09/16 00:34:57;;;;;;;17.50;15.87;;;16.20;99.90;;;;;;5036002;28;20429;-69
2023/09/16 00:37:23;;;;;;;16.53;15.00;;;16.20;99.90;;;;;;5035666;28;20709;-69
2023/09/16 00:39:48;;;;;;;16.73;15.03;;;16.30;99.90;;;;;;5033183;28;20210;-69
2023/09/16 00:42:15;;;;;;;17.73;16.00;;;16.30;99.90;;;;;;5035229;28;20248;-69
2023/09/16 00:44:41;;;;;;;19.07;17.10;;;16.30;99.90;;;;;;5035217;28;20253;-69
2023/09/16 00:47:07;;;;;;;18.13;16.23;;;16.30;99.90;;;;;;5034085;28;20507;-69
2023/09/16 00:49:33;;;;;;;18.13;16.43;;;16.30;99.90;;;;;;5035435;28;20289;-69
2023/09/16 00:51:59;;;;;;;17.90;16.20;;;16.30;99.90;;;;;;5035261;28;20173;-69
2023/09/16 00:54:26;;;;;;;17.43;15.83;;;16.30;99.90;;;;;;5033241;28;20448;-68
2023/09/16 00:56:54;;;;;;;18.30;16.70;;;16.30;99.90;;;;;;5035021;28;20429;-68
2023/09/16 00:59:22;;;;;;;20.27;18.43;;;16.30;99.90;;;;;;5035178;28;20429;-69
2023/09/16 01:01:50;;;;;;;18.07;16.27;;;16.30;99.90;;;;;;5035090;28;20820;-68
2023/09/16 01:04:16;;;;;;;16.37;14.80;;;16.30;99.90;;;;;;5034879;28;20448;-68
2023/09/16 01:06:43;;;;;;;17.27;15.60;;;16.30;99.90;;;;;;5033997;28;20441;-68
2023/09/16 01:09:10;;;;;;;19.03;16.47;;;16.30;99.90;;;;;;5034798;28;20486;-69
2023/09/16 01:11:36;;;;;;;18.43;16.70;;;16.30;99.90;;;;;;5034838;28;20447;-69
2023/09/16 01:14:03;;;;;;;17.13;15.53;;;16.30;99.90;;;;;;5034635;28;20424;-68
2023/09/16 01:16:49;;;;;;;18.07;16.37;;;16.30;99.90;;;;;;5033579;28;20432;-68
2023/09/16 01:19:21;;;;;;;17.50;15.83;;;16.20;99.90;;;;;;5034807;28;20429;-68
2023/09/16 01:21:48;;;;;;;16.43;14.93;;;16.20;99.90;;;;;;5033754;28;20598;-69
2023/09/16 01:24:18;;;;;;;17.10;15.40;;;16.10;99.90;;;;;;5034364;28;20432;-69
2023/09/16 01:26:43;;;;;;;17.60;15.97;;;16.00;99.90;;;;;;5034772;28;20879;-69
2023/09/16 01:29:09;;;;;;;16.77;15.13;;;16.00;99.90;;;;;;5034697;28;20452;-69
2023/09/16 01:31:36;;;;;;;17.60;15.97;;;15.90;99.90;;;;;;5034993;28;20201;-69
2023/09/16 01:34:07;;;;;;;23.90;21.50;;;15.90;99.90;;;;;;5032391;28;20432;-69
2023/09/16 01:36:34;;;;;;;20.33;18.47;;;15.90;99.90;;;;;;5031734;28;21035;-69
2023/09/16 01:39:05;;;;;;;18.10;16.33;;;15.90;99.90;;;;;;5034540;28;20425;-68
2023/09/16 01:41:34;;;;;;;18.93;17.13;;;15.90;99.90;;;;;;5033970;28;20574;-68
2023/09/16 01:44:01;;;;;;;19.23;17.40;;;16.00;99.90;;;;;;5034137;28;20459;-68
2023/09/16 01:46:27;;;;;;;17.87;16.17;;;15.90;99.90;;;;;;5034468;28;20978;-69
2023/09/16 01:48:52;;;;;;;18.63;16.93;;;15.90;99.90;;;;;;5031713;28;20557;-69
2023/09/16 01:51:18;;;;;;;21.00;18.80;;;15.90;99.90;;;;;;5034294;28;20206;-69
2023/09/16 01:53:43;;;;;;;20.40;18.57;;;15.90;99.90;;;;;;5034823;28;20170;-69
2023/09/16 01:56:09;;;;;;;17.77;15.97;;;15.80;99.90;;;;;;5035509;28;20544;-68
2023/09/16 01:58:35;;;;;;;17.33;15.70;;;15.80;99.90;;;;;;5034669;28;20651;-68
2023/09/16 02:01:08;;;;;;;16.97;15.43;;;15.80;99.90;;;;;;5032767;28;20274;-68
2023/09/16 02:03:33;;;;;;;18.90;17.20;;;15.80;99.90;;;;;;5033733;28;20166;-68
2023/09/16 02:05:59;;;;;;;18.43;16.73;;;15.80;99.90;;;;;;5034120;28;20484;-68
2023/09/16 02:08:25;;;;;;;23.43;21.13;;;15.80;99.90;;;;;;5034067;28;20220;-69
2023/09/16 02:10:50;;;;;;;19.83;18.13;;;15.90;99.90;;;;;;5036385;28;20284;-69
2023/09/16 02:13:16;;;;;;;19.30;17.40;;;15.70;99.90;;;;;;5036604;28;20186;-68
2023/09/16 02:15:42;;;;;;;19.27;17.27;;;15.70;99.90;;;;;;5032434;28;20598;-68
2023/09/16 02:18:08;;;;;;;20.87;18.77;;;15.70;99.90;;;;;;5033863;28;20166;-68
2023/09/16 02:20:33;;;;;;;21.03;19.03;;;15.80;99.90;;;;;;5033689;28;20501;-68
2023/09/16 02:23:01;;;;;;;21.10;19.00;;;15.70;99.90;;;;;;5033927;28;20186;-68
2023/09/16 02:25:26;;;;;;;20.30;18.33;;;15.80;99.90;;;;;;5033697;28;20178;-69
2023/09/16 02:27:52;;;;;;;20.53;18.53;;;15.80;99.90;;;;;;5032839;28;20433;-68
2023/09/16 02:30:17;;;;;;;21.33;19.10;;;15.90;99.90;;;;;;5032593;28;20208;-68
2023/09/16 02:32:43;;;;;;;20.60;18.60;;;15.90;99.90;;;;;;5033272;28;20200;-68
2023/09/16 02:35:08;;;;;;;18.97;17.17;;;15.90;99.90;;;;;;5033488;28;20236;-68
2023/09/16 02:37:34;;;;;;;20.33;18.23;;;15.90;99.90;;;;;;5033277;28;20184;-68
2023/09/16 02:39:59;;;;;;;19.60;17.67;;;15.90;99.90;;;;;;5033247;28;20276;-69
2023/09/16 02:42:25;;;;;;;20.97;18.87;;;15.90;99.90;;;;;;5030504;28;20268;-68
2023/09/16 02:44:51;;;;;;;18.23;16.43;;;16.00;99.90;;;;;;5032827;28;20643;-69
2023/09/16 02:47:16;;;;;;;17.97;16.23;;;15.80;99.90;;;;;;5033024;28;20257;-68
2023/09/16 02:49:42;;;;;;;21.10;19.00;;;15.80;99.90;;;;;;5031654;28;20698;-68
2023/09/16 02:52:07;;;;;;;16.40;14.90;;;15.80;99.90;;;;;;5032315;28;20697;-68
2023/09/16 02:54:33;;;;;;;18.57;16.93;;;15.80;99.90;;;;;;5031841;28;20224;-68
2023/09/16 02:56:58;;;;;;;19.20;16.30;;;15.80;99.90;;;;;;5033003;28;20185;-68
2023/09/16 02:59:24;;;;;;;18.67;16.87;;;15.70;99.90;;;;;;5032829;28;20174;-68
2023/09/16 03:01:49;;;;;;;19.53;17.77;;;15.70;99.90;;;;;;5032822;28;20202;-69
2023/09/16 03:04:15;;;;;;;18.93;17.00;;;15.70;99.90;;;;;;5032586;28;20320;-69
2023/09/16 03:06:40;;;;;;;21.20;19.30;;;15.70;99.90;;;;;;5032655;28;20166;-68
2023/09/16 03:09:06;;;;;;;21.97;19.87;;;15.70;99.90;;;;;;5030956;28;20281;-69
2023/09/16 03:11:31;;;;;;;21.17;18.87;;;15.70;99.90;;;;;;5032272;28;20228;-69
2023/09/16 03:13:57;;;;;;;20.50;18.50;;;15.70;99.90;;;;;;5032653;28;20654;-69
2023/09/16 03:16:23;;;;;;;20.83;18.93;;;15.70;99.90;;;;;;5032623;28;20582;-69
2023/09/16 03:18:50;;;;;;;23.23;21.03;;;15.80;99.90;;;;;;5032566;28;20205;-68
2023/09/16 03:21:18;;;;;;;20.17;18.20;;;15.70;99.90;;;;;;5031042;28;20468;-69
2023/09/16 03:23:44;;;;;;;22.27;20.37;;;15.80;99.90;;;;;;5032147;28;20432;-69
2023/09/16 03:26:11;;;;;;;23.10;20.90;;;15.80;99.90;;;;;;5032379;28;20492;-69
2023/09/16 03:28:40;;;;;;;24.50;22.13;;;15.70;99.90;;;;;;5032376;28;20800;-68
2023/09/16 03:31:06;;;;;;;21.97;19.80;;;15.70;99.90;;;;;;5032245;28;20945;-68
2023/09/16 03:33:31;;;;;;;24.60;22.10;;;15.70;99.90;;;;;;5031130;28;20447;-68
2023/09/16 03:35:57;;;;;;;22.90;20.70;;;15.70;99.90;;;;;;5032231;28;20178;-69
2023/09/16 03:38:28;;;;;;;24.67;22.07;;;15.70;99.90;;;;;;5032379;28;20170;-68
2023/09/16 03:40:53;;;;;;;22.60;20.33;;;15.70;99.90;;;;;;5031101;28;20233;-68
2023/09/16 03:43:19;;;;;;;22.30;20.07;;;15.70;99.90;;;;;;5031991;28;20456;-68
2023/09/16 03:45:44;;;;;;;23.87;21.57;;;15.70;99.90;;;;;;5032216;28;20178;-68
2023/09/16 03:48:10;;;;;;;25.20;22.60;;;15.70;99.90;;;;;;5030071;28;20182;-68
2023/09/16 03:50:36;;;;;;;23.53;21.23;;;15.70;99.90;;;;;;5031007;28;20571;-68
2023/09/16 03:53:01;;;;;;;22.70;20.60;;;15.70;99.90;;;;;;5032096;28;20639;-68
2023/09/16 03:55:27;;;;;;;25.37;22.93;;;15.70;99.90;;;;;;5032299;28;20178;-69
2023/09/16 03:57:52;;;;;;;25.77;23.37;;;15.70;99.90;;;;;;5032268;28;20682;-68
2023/09/16 04:00:18;;;;;;;25.53;22.70;;;15.70;99.90;;;;;;5031568;28;20182;-69
2023/09/16 04:02:43;;;;;;;23.00;20.70;;;15.70;99.90;;;;;;5031576;28;20198;-68
2023/09/16 04:05:10;;;;;;;24.63;22.27;;;15.70;99.90;;;;;;5038488;28;20662;-68
2023/09/16 04:07:35;;;;;;;26.37;23.77;;;15.60;99.90;;;;;;5038675;28;20611;-69
2023/09/16 04:10:01;;;;;;;21.97;19.87;;;15.60;99.90;;;;;;5037098;28;20547;-69
2023/09/16 04:12:27;;;;;;;23.00;20.90;;;15.70;99.90;;;;;;5038514;28;20535;-68
2023/09/16 04:14:53;;;;;;;22.17;20.07;;;15.60;99.90;;;;;;5037182;28;20432;-68
2023/09/16 04:17:19;;;;;;;24.77;22.50;;;15.50;99.90;;;;;;5037503;28;20416;-69
2023/09/16 04:19:44;;;;;;;25.43;22.80;;;15.60;99.90;;;;;;5038177;28;20189;-68
2023/09/16 04:22:10;;;;;;;23.20;20.97;;;15.60;99.90;;;;;;5038483;28;21108;-68
2023/09/16 04:24:35;;;;;;;23.43;21.23;;;15.60;99.90;;;;;;5038294;28;20170;-68
2023/09/16 04:27:01;;;;;;;23.23;20.97;;;15.50;99.90;;;;;;5038456;28;20223;-68
2023/09/16 04:29:26;;;;;;;24.03;21.63;;;15.50;99.90;;;;;;5034834;28;20242;-68
2023/09/16 04:31:52;;;;;;;23.93;21.63;;;15.60;99.90;;;;;;5046391;28;20186;-68
2023/09/16 04:34:17;;;;;;;24.77;22.17;;;15.50;99.90;;;;;;5045079;28;20197;-68
2023/09/16 04:36:43;;;;;;;25.37;22.97;;;15.50;99.90;;;;;;5039196;28;20541;-68
2023/09/16 04:39:08;;;;;;;25.70;23.20;;;15.50;99.90;;;;;;5038355;28;20170;-69
2023/09/16 04:41:34;;;;;;;25.40;22.80;;;15.50;99.90;;;;;;5037140;28;20552;-68
2023/09/16 04:44:00;;;;;;;25.43;22.97;;;15.60;99.90;;;;;;5038051;28;20573;-68
2023/09/16 04:46:25;;;;;;;25.00;21.90;;;15.60;99.90;;;;;;5038415;28;20432;-68
2023/09/16 04:48:51;;;;;;;22.67;20.57;;;15.60;99.90;;;;;;5038195;28;20170;-68
2023/09/16 04:51:16;;;;;;;22.07;19.87;;;15.50;99.90;;;;;;5038644;28;20197;-68
2023/09/16 04:53:42;;;;;;;20.23;18.03;;;15.30;99.90;;;;;;5037999;28;20178;-68
2023/09/16 04:56:10;;;;;;;20.10;18.20;;;15.40;99.90;;;;;;5036003;28;20256;-68
2023/09/16 04:58:36;;;;;;;19.90;17.90;;;15.40;99.90;;;;;;5037939;28;20224;-69
2023/09/16 05:01:05;;;;;;;21.63;19.10;;;15.30;99.90;;;;;;5038067;28;20859;-69
2023/09/16 05:03:31;;;;;;;21.13;19.13;;;15.20;99.90;;;;;;5037891;28;20432;-68
2023/09/16 05:05:57;;;;;;;20.10;18.10;;;15.10;99.90;;;;;;5037762;28;20416;-68
2023/09/16 05:08:22;;;;;;;20.83;18.63;;;15.10;99.90;;;;;;5038022;28;20437;-68
2023/09/16 05:10:55;;;;;;;24.87;22.33;;;15.10;99.90;;;;;;5036495;28;20236;-70
2023/09/16 05:13:21;;;;;;;25.23;22.53;;;15.10;99.90;;;;;;5037603;28;20581;-70
2023/09/16 05:15:47;;;;;;;25.43;22.97;;;15.10;99.90;;;;;;5034965;28;20787;-70
2023/09/16 05:18:13;;;;;;;25.53;22.77;;;15.10;99.90;;;;;;5034772;28;20559;-70
2023/09/16 05:20:39;;;;;;;28.77;25.77;;;15.10;99.90;;;;;;5033409;28;20440;-70
2023/09/16 05:23:04;;;;;;;25.97;23.37;;;15.10;99.90;;;;;;5033555;28;20914;-70
2023/09/16 05:25:30;;;;;;;25.03;22.50;;;15.10;99.90;;;;;;5034541;28;20655;-70
2023/09/16 05:27:56;;;;;;;24.37;22.00;;;15.20;99.90;;;;;;5033405;28;20174;-70
2023/09/16 05:30:21;;;;;;;22.77;20.53;;;15.30;99.90;;;;;;5034544;28;20197;-70
2023/09/16 05:32:47;;;;;;;22.40;19.20;;;15.40;99.90;;;;;;5034269;28;20173;-70
2023/09/16 05:35:12;;;;;;;21.50;19.50;;;15.40;99.90;;;;;;5033363;28;20213;-70
2023/09/16 05:37:38;;;;;;;22.80;19.20;;;15.40;99.90;;;;;;5034294;28;20170;-71
2023/09/16 05:40:04;;;;;;;23.80;21.60;;;15.40;99.90;;;;;;5034442;28;20194;-70
2023/09/16 05:42:29;;;;;;;24.60;21.43;;;15.50;99.90;;;;;;5034293;28;20556;-70
2023/09/16 05:44:55;;;;;;;22.07;20.00;;;15.70;99.90;;;;;;5034090;28;20435;-70
2023/09/16 05:47:20;;;;;;;22.80;20.57;;;15.90;99.90;;;;;;5034253;28;20662;-70
2023/09/16 05:49:46;;;;;;;22.23;20.10;;;16.00;99.90;;;;;;5033000;28;20198;-70
2023/09/16 05:52:11;;;;;;;21.80;19.67;;;16.20;99.90;;;;;;5034138;28;20171;-70
2023/09/16 05:54:37;;;;;;;20.07;18.27;;;16.30;99.90;;;;;;5033887;28;20632;-70
2023/09/16 05:57:03;;;;;;;20.80;18.50;;;16.50;99.90;;;;;;5032815;28;20190;-70
2023/09/16 05:59:28;;;;;;;23.17;19.63;;;16.70;99.90;;;;;;5034027;28;20198;-70
2023/09/16 06:01:54;;;;;;;23.40;21.30;;;16.90;99.90;;;;;;5033938;28;20205;-71
2023/09/16 06:04:19;;;;;;;24.60;20.50;;;17.10;99.90;;;;;;5032629;28;20190;-70
2023/09/16 06:06:46;;;;;;;26.67;20.73;;;17.20;99.90;;;;;;5033834;28;20166;-70
2023/09/16 06:09:12;;;;;;;22.67;20.57;;;17.40;99.90;;;;;;5033672;28;20170;-69
2023/09/16 06:11:37;;;;;;;21.00;18.83;;;17.50;99.90;;;;;;5033715;28;20773;-70
2023/09/16 06:14:03;;;;;;;21.57;19.27;;;17.70;99.90;;;;;;5033483;28;20546;-70
2023/09/16 06:16:29;;;;;;;22.53;20.20;;;17.80;99.90;;;;;;5032620;28;20659;-71
2023/09/16 06:18:54;;;;;;;24.20;20.57;;;18.00;99.90;;;;;;5033466;28;20428;-70
2023/09/16 06:21:20;;;;;;;21.27;19.37;;;18.10;99.90;;;;;;5033542;28;20220;-70
2023/09/16 06:23:45;;;;;;;19.00;17.20;;;18.10;99.90;;;;;;5033441;28;20169;-70
2023/09/16 06:26:11;;;;;;;22.27;18.90;;;18.10;99.90;;;;;;5032924;28;20178;-71
2023/09/16 06:28:41;;;;;;;18.57;16.87;;;18.10;99.90;;;;;;5030989;28;20734;-71
2023/09/16 06:31:07;;;;;;;19.43;17.70;;;18.30;99.90;;;;;;5033257;28;20243;-70
2023/09/16 06:33:32;;;;;;;21.77;19.43;;;18.40;99.90;;;;;;5032948;28;20425;-71
2023/09/16 06:35:58;;;;;;;22.07;20.27;;;18.30;99.90;;;;;;5033357;28;20643;-70
2023/09/16 06:38:23;;;;;;;19.57;17.87;;;18.30;99.90;;;;;;5033326;28;20647;-71
2023/09/16 06:40:49;;;;;;;20.07;18.17;;;18.40;99.90;;;;;;5032014;28;20690;-71
2023/09/16 06:43:14;;;;;;;21.10;19.27;;;18.50;99.90;;;;;;5032882;28;20178;-71
2023/09/16 06:45:40;;;;;;;18.33;16.67;;;18.70;99.90;;;;;;5033115;28;20220;-71
2023/09/16 06:48:05;;;;;;;20.97;18.97;;;18.80;99.90;;;;;;5033033;28;20170;-71
2023/09/16 06:50:31;;;;;;;20.10;18.30;;;19.10;99.90;;;;;;5033075;28;20221;-71
2023/09/16 06:52:56;;;;;;;19.70;18.00;;;19.10;99.90;;;;;;5032710;28;20178;-71
2023/09/16 06:55:22;;;;;;;19.37;17.40;;;19.10;99.90;;;;;;5031708;28;20232;-71
2023/09/16 06:57:48;;;;;;;19.97;18.00;;;19.20;99.90;;;;;;5032001;28;20184;-71
2023/09/16 07:00:14;;;;;;;19.50;17.60;;;19.30;99.90;;;;;;5032867;28;20597;-71
2023/09/16 07:02:40;;;;;;;20.90;18.90;;;19.40;99.90;;;;;;5032461;28;20870;-71
2023/09/16 07:05:05;;;;;;;18.70;17.00;;;19.50;99.90;;;;;;5032783;28;20416;-71
2023/09/16 07:07:31;;;;;;;19.80;18.10;;;19.70;99.90;;;;;;5032816;28;20169;-71
2023/09/16 07:09:56;;;;;;;17.93;16.43;;;19.70;99.90;;;;;;5031415;28;20249;-71
2023/09/16 07:12:23;;;;;;;19.43;17.63;;;19.90;99.90;;;;;;5029305;28;20265;-72
2023/09/16 07:14:48;;;;;;;18.43;16.63;;;20.00;99.90;;;;;;5026379;28;20170;-72
2023/09/16 07:17:14;;;;;;;19.97;18.30;;;20.00;99.90;;;;;;5032574;28;20420;-71
2023/09/16 07:19:40;;;;;;;20.50;18.40;;;20.20;99.90;;;;;;5031260;28;20205;-72
2023/09/16 07:22:05;;;;;;;17.73;16.07;;;20.40;99.90;;;;;;5032362;28;20459;-71
2023/09/16 07:24:31;;;;;;;18.47;16.80;;;20.60;99.90;;;;;;5031971;28;20166;-72
2023/09/16 07:26:56;;;;;;;16.63;14.93;;;20.90;99.90;;;;;;5032351;28;20658;-71
2023/09/16 07:29:22;;;;;;;16.97;15.47;;;21.10;99.90;;;;;;5032307;28;20170;-72
2023/09/16 07:31:48;;;;;;;18.07;16.47;;;21.50;99.90;;;;;;5031118;28;20259;-72
2023/09/16 07:34:15;;;;;;;17.70;15.90;;;21.50;99.90;;;;;;5031987;28;20689;-72
2023/09/16 07:36:41;;;;;;;15.13;13.77;;;21.90;99.90;;;;;;5032297;28;20170;-71
2023/09/16 07:39:07;;;;;;;18.00;15.70;;;22.00;99.90;;;;;;5031995;28;20941;-72
2023/09/16 07:41:33;;;;;;;17.67;16.27;;;22.20;99.90;;;;;;5032164;28;20456;-71
2023/09/16 07:43:58;;;;;;;15.23;13.90;;;22.50;99.90;;;;;;5030039;28;20170;-69
2023/09/16 07:46:24;;;;;;;15.97;14.57;;;22.60;99.90;;;;;;5031149;28;20241;-72
2023/09/16 07:48:49;;;;;;;16.77;15.33;;;22.60;99.90;;;;;;5032238;28;20171;-69
2023/09/16 07:51:16;;;;;;;16.80;15.30;;;22.50;99.90;;;;;;5032007;28;20197;-65
2023/09/16 07:53:41;;;;;;;17.97;16.37;;;22.90;99.90;;;;;;5029817;28;20713;-66
2023/09/16 07:56:07;;;;;;;16.80;15.43;;;22.90;99.90;;;;;;5031863;28;20421;-66
2023/09/16 07:58:32;;;;;;;17.50;14.77;;;23.30;99.90;;;;;;5031999;28;20279;-66
2023/09/16 08:00:58;;;;;;;16.00;14.40;;;23.60;99.90;;;;;;5031447;28;20224;-66
2023/09/16 08:03:23;;;;;;;16.83;15.33;;;23.60;99.90;;;;;;5030912;28;20648;-66
2023/09/16 08:05:50;;;;;;;15.97;14.70;;;23.80;99.90;;;;;;5031768;28;20253;-66
2023/09/16 08:08:16;;;;;;;17.03;15.33;;;23.60;99.90;;;;;;5031953;28;20690;-64
2023/09/16 08:10:50;;;;;;;15.77;14.20;;;23.90;99.90;;;;;;5031638;28;20456;-67
2023/09/16 08:13:17;;;;;;;14.90;13.60;;;24.40;99.90;;;;;;5031564;28;20166;-65
2023/09/16 08:15:42;;;;;;;15.40;14.00;;;24.90;99.90;;;;;;5031835;28;20413;-65
2023/09/16 08:18:08;;;;;;;15.07;13.77;;;25.20;99.90;;;;;;5030101;28;20443;-65
2023/09/16 08:20:34;;;;;;;15.70;14.10;;;25.80;99.90;;;;;;5031731;28;20537;-65
2023/09/16 08:22:59;;;;;;;16.57;15.17;;;25.70;99.90;;;;;;5031515;28;20210;-65
2023/09/16 08:25:25;;;;;;;15.97;14.67;;;26.00;99.90;;;;;;5030824;28;20186;-66
2023/09/16 08:27:50;;;;;;;16.97;15.47;;;25.70;99.90;;;;;;5031680;28;20178;-65
2023/09/16 08:30:16;;;;;;;14.20;13.00;;;25.90;99.90;;;;;;5030534;28;20205;-65
2023/09/16 08:32:41;;;;;;;14.60;13.40;;;26.20;99.90;;;;;;5031501;28;20170;-65
2023/09/16 08:35:07;;;;;;;14.70;13.30;;;27.00;99.90;;;;;;5031668;28;20182;-65
2023/09/16 08:37:36;;;;;;;14.60;13.23;;;28.20;99.90;;;;;;5029423;28;20178;-65
2023/09/16 08:40:02;;;;;;;12.33;11.33;;;28.80;99.90;;;;;;5029645;28;20465;-65
2023/09/16 08:42:38;;;;;;;14.60;13.50;;;29.30;99.90;;;;;;5030323;28;20444;-65
2023/09/16 08:45:12;;;;;;;14.77;13.53;;;29.60;99.90;;;;;;5029352;28;20778;-65
2023/09/16 08:47:45;;;;;;;14.77;13.07;;;29.60;99.70;;;;;;5031340;28;20444;-65
2023/09/16 08:50:11;;;;;;;13.30;12.20;;;29.00;99.90;;;;;;5032128;28;20527;-65
2023/09/16 08:52:53;;;;;;;13.67;12.53;;;28.30;99.90;;;;;;5034911;28;20788;-66
2023/09/16 08:55:19;;;;;;;16.70;13.83;;;29.30;99.90;;;;;;5035148;28;20448;-66
2023/09/16 08:58:02;;;;;;;15.97;14.33;;;30.00;98.60;;;;;;5033888;28;20469;-66
2023/09/16 09:00:28;;;;;;;16.20;11.60;;;30.60;96.40;;;;;;5033923;28;20444;-66
2023/09/16 09:02:54;;;;;;;13.23;12.03;;;31.40;94.20;;;;;;5034810;28;20456;-66
2023/09/16 09:05:23;;;;;;;13.80;12.73;;;31.30;92.50;;;;;;5035078;28;20175;-66
2023/09/16 09:07:49;;;;;;;11.90;10.90;;;30.80;93.70;;;;;;5035086;28;20166;-66
2023/09/16 09:10:14;;;;;;;11.90;11.10;;;31.40;92.20;;;;;;5034734;28;20527;-66
2023/09/16 09:12:41;;;;;;;10.43;9.57;;;32.10;90.60;;;;;;5033296;28;20181;-66
2023/09/16 09:15:10;;;;;;;11.60;10.50;;;33.70;86.50;;;;;;5034719;28;20181;-66
2023/09/16 09:17:38;;;;;;;11.23;10.43;;;33.30;83.70;;;;;;5034822;28;20945;-66
2023/09/16 09:20:11;;;;;;;10.17;9.20;;;33.70;81.00;;;;;;5034467;28;20813;-66
2023/09/16 09:22:39;;;;;;;13.83;12.60;;;35.00;74.50;;;;;;5034311;28;20814;-65
2023/09/16 09:25:06;;;;;;;9.40;8.60;;;35.80;67.70;;;;;;5033457;28;20432;-66
2023/09/16 09:27:32;;;;;;;9.27;8.53;;;36.80;62.80;;;;;;5034392;28;20421;-66
2023/09/16 09:29:57;;;;;;;8.83;8.23;;;37.90;58.80;;;;;;5034518;28;20475;-67
2023/09/16 09:32:29;;;;;;;9.60;8.90;;;38.30;56.80;;;;;;5032813;28;20174;-69
2023/09/16 09:34:54;;;;;;;9.17;8.53;;;38.60;53.90;;;;;;5032521;28;20249;-69
2023/09/16 09:37:20;;;;;;;10.43;9.63;;;38.40;52.70;;;;;;5031448;28;20543;-69
2023/09/16 09:40:03;;;;;;;8.50;7.80;;;38.50;52.00;;;;;;5031574;28;20683;-69
2023/09/16 09:42:29;;;;;;;9.10;8.50;;;39.00;50.10;;;;;;5032442;28;20198;-69
2023/09/16 09:45:01;;;;;;;8.10;7.60;;;39.00;49.10;;;;;;5032309;28;20443;-69
2023/09/16 09:47:27;;;;;;;8.37;7.73;;;39.70;48.00;;;;;;5032165;28;20636;-69
2023/09/16 09:49:53;;;;;;;7.17;6.77;;;39.30;46.30;;;;;;5032405;28;20440;-69
2023/09/16 09:52:18;;;;;;;8.13;7.40;;;38.60;46.60;;;;;;5031520;28;20186;-69
2023/09/16 09:54:45;;;;;;;8.03;7.33;;;36.70;46.90;;;;;;5032496;28;20212;-69
2023/09/16 09:57:11;;;;;;;8.00;7.50;;;36.40;49.00;;;;;;5032369;28;20179;-69
2023/09/16 09:59:36;;;;;;;6.67;6.17;;;36.70;48.70;;;;;;5032226;28;20502;-69
2023/09/16 10:02:03;;;;;;;5.90;5.60;;;38.60;46.20;;;;;;5031960;28;20210;-69
2023/09/16 10:04:30;;;;;;;6.83;6.43;;;40.30;44.30;;;;;;5030893;28;20186;-69
2023/09/16 10:06:57;;;;;;;8.17;7.67;;;39.50;43.80;;;;;;5032294;28;20479;-68
2023/09/16 10:09:23;;;;;;;6.70;6.20;;;40.50;42.70;;;;;;5032514;28;20954;-69
2023/09/16 10:11:48;;;;;;;6.23;5.73;;;40.90;40.80;;;;;;5032089;28;20428;-70
2023/09/16 10:14:14;;;;;;;5.83;5.43;;;41.40;39.20;;;;;;5032866;28;20193;-70
2023/09/16 10:16:40;;;;;;;6.17;5.70;;;41.70;38.70;;;;;;5033493;28;20201;-71
2023/09/16 10:19:05;;;;;;;5.63;5.23;;;42.30;37.90;;;;;;5031692;28;20534;-71
2023/09/16 10:21:31;;;;;;;5.70;5.30;;;40.80;37.30;;;;;;5034057;28;20240;-69
2023/09/16 10:23:57;;;;;;;6.43;6.03;;;41.20;38.20;;;;;;5030118;28;20166;-71
2023/09/16 10:26:22;;;;;;;7.77;7.27;;;42.00;37.70;;;;;;5035037;28;20171;-67
2023/09/16 10:28:52;;;;;;;7.27;6.87;;;42.40;38.10;;;;;;5033825;28;20644;-68
2023/09/16 10:31:18;;;;;;;8.57;7.97;;;42.40;37.70;;;;;;5031963;28;20206;-67
2023/09/16 10:33:44;;;;;;;7.30;6.80;;;41.50;38.20;;;;;;5025783;28;20441;-70
2023/09/16 10:36:12;;;;;;;8.67;8.07;;;42.20;38.40;;;;;;5030945;28;20439;-70
2023/09/16 10:38:38;;;;;;;7.27;6.77;;;40.60;37.90;;;;;;5032612;28;20447;-70
2023/09/16 10:41:08;;;;;;;7.63;6.93;;;40.30;38.70;;;;;;5032885;28;20444;-72
2023/09/16 10:43:34;;;;;;;7.70;7.20;;;42.40;37.80;;;;;;5029300;28;20950;-71
2023/09/16 10:46:00;;;;;;;6.70;6.33;;;43.40;36.60;;;;;;5027018;28;20459;-72
2023/09/16 10:48:26;;;;;;;7.90;7.40;;;44.40;34.90;;;;;;5023689;28;20449;-72
2023/09/16 10:50:59;;;;;;;6.87;6.43;;;44.50;33.90;;;;;;5020792;28;20210;-72
2023/09/16 10:53:34;;;;;;;6.53;6.23;;;44.30;34.10;;;;;;5023116;28;20178;-71
2023/09/16 10:56:13;;;;;;;7.07;6.67;;;44.40;33.40;;;;;;5023236;28;20428;-71
2023/09/16 10:59:07;;;;;;;7.43;6.93;;;43.70;33.50;;;;;;5028429;28;20429;-71
2023/09/16 11:01:49;;;;;;;6.33;5.93;;;43.30;33.90;;;;;;5029120;28;20464;-70
2023/09/16 11:04:17;;;;;;;6.50;6.00;;;43.80;33.10;;;;;;5031501;28;20433;-71
2023/09/16 11:06:47;;;;;;;6.07;5.77;;;44.40;32.30;;;;;;5042996;28;20417;-70
2023/09/16 11:09:13;;;;;;;5.63;5.33;;;44.60;32.10;;;;;;5044927;28;20953;-70
2023/09/16 11:11:40;;;;;;;5.87;5.50;;;43.50;31.80;;;;;;5044032;23;21001;-70
2023/09/16 11:14:06;;;;;;;6.33;5.83;;;42.70;31.40;;;;;;5039139;28;20933;-70
2023/09/16 11:16:48;;;;;;;5.00;4.70;;;42.60;32.00;;;;;;5044063;28;20428;-70
2023/09/16 11:19:24;;;;;;;5.33;5.03;;;43.00;31.30;;;;;;5047267;28;20465;-69
2023/09/16 11:21:52;;;;;;;6.00;5.60;;;42.50;31.00;;;;;;5068955;28;20459;-67
2023/09/16 11:24:17;;;;;;;6.80;6.30;;;42.80;31.70;;;;;;5052987;28;20443;-67
2023/09/16 11:26:47;;;;;;;5.90;5.40;;;42.90;31.50;;;;;;5051948;28;20427;-67
2023/09/16 11:29:23;;;;;;;4.60;4.30;;;43.50;31.30;;;;;;5052796;28;20260;-67
2023/09/16 11:31:49;;;;;;;5.77;5.33;;;43.40;30.10;;;;;;5054436;28;20537;-67
2023/09/16 11:34:19;;;;;;;5.17;4.87;;;43.60;30.30;;;;;;5060464;28;20530;-67
2023/09/16 11:36:52;;;;;;;5.43;5.00;;;43.50;30.50;;;;;;5051848;28;20177;-67
2023/09/16 11:39:22;;;;;;;6.03;5.73;;;44.20;30.00;;;;;;5052034;28;20419;-67
2023/09/16 11:41:48;;;;;;;5.23;5.03;;;44.70;29.30;;;;;;5051807;28;20468;-67
2023/09/16 11:44:15;;;;;;;5.63;5.33;;;45.50;28.90;;;;;;5059598;28;20807;-67
2023/09/16 11:46:41;;;;;;;5.07;4.73;;;44.80;28.40;;;;;;5065843;28;20180;-69
2023/09/16 11:49:07;;;;;;;4.80;4.60;;;44.80;28.10;;;;;;5060352;28;20428;-70
2023/09/16 11:51:36;;;;;;;4.67;4.37;;;45.20;27.90;;;;;;5050123;28;20455;-69
2023/09/16 11:54:02;;;;;;;4.90;4.70;;;43.70;27.90;;;;;;5055835;28;20554;-69
2023/09/16 11:56:36;;;;;;;4.43;4.13;;;42.40;29.20;;;;;;5059029;28;20602;-70
2023/09/16 11:59:04;;;;;;;5.33;5.03;;;43.00;29.00;;;;;;5053841;28;20174;-71
2023/09/16 12:01:40;;;;;;;4.80;4.60;;;43.60;28.50;;;;;;5070545;28;20447;-71
2023/09/16 12:04:07;;;;;;;3.70;3.57;;;44.90;27.70;;;;;;5052483;28;20466;-70
2023/09/16 12:06:35;;;;;;;3.83;3.63;;;42.90;26.70;;;;;;5060512;28;20434;-67
2023/09/16 12:09:02;;;;;;;4.10;3.80;;;43.10;27.40;;;;;;5063337;28;20823;-66
2023/09/16 12:11:29;;;;;;;2.67;2.57;;;44.30;26.60;;;;;;5067191;28;20503;-67
2023/09/16 12:13:55;;;;;;;3.37;3.17;;;45.00;26.20;;;;;;5057462;28;20443;-67
2023/09/16 12:16:23;;;;;;;4.00;3.80;;;46.10;25.70;;;;;;5050373;28;20440;-67
2023/09/16 12:18:49;;;;;;;3.80;3.53;;;47.10;25.40;;;;;;5051601;28;20178;-67
2023/09/16 12:21:14;;;;;;;3.50;3.30;;;46.20;24.70;;;;;;5058212;28;20459;-67
2023/09/16 12:23:41;;;;;;;3.87;3.40;;;45.30;25.30;;;;;;5065470;28;20181;-67
2023/09/16 12:26:12;;;;;;;3.63;3.30;;;46.60;25.10;;;;;;5056230;28;20193;-67
2023/09/16 12:28:38;;;;;;;3.93;3.60;;;46.80;24.70;;;;;;5054323;28;20431;-66